createdAt,value
2022-08-29T00:00:29.516Z,99.90
2022-08-29T00:02:56.726Z,99.90
2022-08-29T00:05:25.382Z,99.90
2022-08-29T00:07:52.291Z,99.90
2022-08-29T00:10:18.893Z,99.90
2022-08-29T00:12:45.564Z,99.90
2022-08-29T00:15:12.339Z,99.90
2022-08-29T00:17:38.935Z,99.90
2022-08-29T00:20:06.824Z,99.90
2022-08-29T00:22:33.768Z,99.90
2022-08-29T00:25:04.639Z,99.90
2022-08-29T00:27:34.312Z,99.90
2022-08-29T00:30:00.998Z,99.90
2022-08-29T00:32:34.746Z,99.90
2022-08-29T00:35:05.463Z,99.90
2022-08-29T00:37:32.092Z,99.90
2022-08-29T00:39:58.769Z,99.90
2022-08-29T00:42:28.492Z,99.90
2022-08-29T00:44:55.106Z,99.90
2022-08-29T00:47:23.469Z,99.90
2022-08-29T00:49:51.417Z,99.90
2022-08-29T00:52:18.999Z,99.90
2022-08-29T00:54:47.747Z,1.00
2022-08-29T00:57:14.405Z,1.00
2022-08-29T00:59:41.201Z,1.00
2022-08-29T01:02:07.971Z,1.00
2022-08-29T01:04:34.656Z,1.00
2022-08-29T01:07:01.362Z,1.00
2022-08-29T01:09:27.979Z,1.00
2022-08-29T01:12:14.286Z,1.00
2022-08-29T01:14:41.309Z,1.00
2022-08-29T01:17:08.585Z,1.00
2022-08-29T01:19:35.326Z,1.00
2022-08-29T01:22:01.869Z,1.00
2022-08-29T01:24:35.692Z,1.00
2022-08-29T01:27:02.279Z,1.00
2022-08-29T01:29:29.134Z,1.00
2022-08-29T01:31:57.954Z,1.00
2022-08-29T01:34:25.228Z,1.00
2022-08-29T01:36:53.618Z,1.00
2022-08-29T01:39:22.075Z,1.00
2022-08-29T01:41:48.906Z,1.00
2022-08-29T01:44:20.240Z,1.00
2022-08-29T01:46:47.365Z,1.00
2022-08-29T01:49:14.944Z,1.00
2022-08-29T01:51:41.583Z,70.30
2022-08-29T01:54:08.545Z,99.90
2022-08-29T01:56:36.348Z,99.90
2022-08-29T01:59:03.642Z,99.90
2022-08-29T02:01:31.272Z,99.90
2022-08-29T02:03:58.764Z,84.40
2022-08-29T02:06:25.822Z,41.00
2022-08-29T02:08:52.421Z,19.00
2022-08-29T02:11:19.032Z,2.00
2022-08-29T02:13:49.838Z,1.00
2022-08-29T02:16:17.242Z,1.00
2022-08-29T02:18:44.095Z,53.70
2022-08-29T02:21:11.190Z,99.90
2022-08-29T02:23:37.940Z,99.90
2022-08-29T02:26:05.059Z,99.90
2022-08-29T02:28:31.977Z,99.90
2022-08-29T02:30:58.826Z,99.90
2022-08-29T02:33:25.524Z,1.00
2022-08-29T02:35:52.322Z,1.00
2022-08-29T02:38:18.992Z,1.00
2022-08-29T02:40:47.118Z,1.00
2022-08-29T02:43:14.070Z,1.00
2022-08-29T02:45:41.014Z,1.00
2022-08-29T02:48:07.702Z,1.00
2022-08-29T02:50:34.590Z,1.00
2022-08-29T02:53:01.361Z,1.00
2022-08-29T02:55:27.986Z,1.00
2022-08-29T02:57:54.806Z,1.00
2022-08-29T03:00:25.952Z,1.00
2022-08-29T03:02:53.038Z,1.00
2022-08-29T03:05:20.563Z,1.00
2022-08-29T03:07:50.786Z,1.00
2022-08-29T03:10:17.780Z,1.00
2022-08-29T03:12:44.801Z,1.00
2022-08-29T03:15:11.592Z,1.00
2022-08-29T03:17:38.193Z,1.00
2022-08-29T03:20:05.428Z,1.00
2022-08-29T03:22:32.559Z,1.00
2022-08-29T03:25:02.060Z,1.00
2022-08-29T03:27:29.239Z,1.00
2022-08-29T03:29:55.908Z,1.00
2022-08-29T03:32:22.498Z,1.00
2022-08-29T03:34:49.298Z,19.10
2022-08-29T03:37:15.877Z,99.90
2022-08-29T03:39:42.480Z,99.90
2022-08-29T03:42:09.076Z,99.90
2022-08-29T03:44:36.338Z,99.90
2022-08-29T03:47:03.004Z,99.90
2022-08-29T03:49:29.609Z,99.90
2022-08-29T03:51:56.280Z,99.90
2022-08-29T03:54:22.918Z,99.90
2022-08-29T03:56:49.853Z,99.90
2022-08-29T03:59:16.761Z,99.90
2022-08-29T04:01:43.524Z,99.90
2022-08-29T04:04:30.146Z,99.90
2022-08-29T04:06:56.741Z,99.90
2022-08-29T04:09:23.527Z,1.00
2022-08-29T04:11:50.103Z,1.00
2022-08-29T04:14:16.692Z,1.00
2022-08-29T04:16:43.345Z,1.00
2022-08-29T04:19:09.937Z,1.00
2022-08-29T04:21:36.852Z,1.00
2022-08-29T04:24:03.585Z,99.90
2022-08-29T04:26:37.894Z,1.00
2022-08-29T04:29:05.779Z,1.00
2022-08-29T04:31:32.572Z,95.20
2022-08-29T04:33:59.458Z,1.00
2022-08-29T04:36:26.350Z,99.90
2022-08-29T04:38:53.505Z,99.90
2022-08-29T04:41:20.224Z,99.90
2022-08-29T04:43:46.832Z,1.00
2022-08-29T04:46:23.656Z,1.00
2022-08-29T04:48:50.871Z,1.00
2022-08-29T04:51:17.927Z,1.00
2022-08-29T04:53:44.510Z,1.00
2022-08-29T04:56:11.353Z,1.00
2022-08-29T04:58:39.124Z,99.90
2022-08-29T05:01:06.649Z,1.00
2022-08-29T05:03:33.316Z,1.00
2022-08-29T05:06:00.861Z,1.00
2022-08-29T05:08:27.693Z,1.00
2022-08-29T05:10:54.411Z,1.00
2022-08-29T05:13:21.229Z,1.00
2022-08-29T05:15:48.000Z,1.00
2022-08-29T05:18:14.977Z,1.00
2022-08-29T05:20:42.225Z,1.00
2022-08-29T05:23:09.157Z,1.00
2022-08-29T05:25:35.950Z,99.90
2022-08-29T05:28:02.793Z,1.00
2022-08-29T05:30:34.480Z,1.00
2022-08-29T05:33:01.982Z,1.00
2022-08-29T05:35:28.593Z,1.00
2022-08-29T05:37:55.281Z,99.90
2022-08-29T05:40:22.629Z,99.90
2022-08-29T05:42:49.557Z,99.90
2022-08-29T05:45:16.286Z,99.90
2022-08-29T05:47:43.026Z,99.90
2022-08-29T05:50:11.925Z,99.90
2022-08-29T05:52:38.531Z,99.90
2022-08-29T05:55:06.236Z,99.90
2022-08-29T05:57:32.857Z,99.90
2022-08-29T05:59:59.500Z,99.90
2022-08-29T06:02:26.235Z,99.90
2022-08-29T06:04:52.963Z,99.90
2022-08-29T06:07:19.634Z,99.90
2022-08-29T06:09:46.303Z,99.90
2022-08-29T06:12:13.976Z,99.90
2022-08-29T06:14:40.725Z,99.90
2022-08-29T06:17:08.629Z,99.90
2022-08-29T06:19:36.136Z,99.90
2022-08-29T06:22:03.386Z,99.90
2022-08-29T06:24:36.433Z,99.90
2022-08-29T06:27:03.066Z,99.90
2022-08-29T06:29:29.803Z,99.90
2022-08-29T06:31:56.453Z,99.90
2022-08-29T06:34:23.195Z,99.90
2022-08-29T06:36:51.243Z,99.90
2022-08-29T06:39:18.478Z,99.90
2022-08-29T06:41:45.308Z,99.90
2022-08-29T06:44:11.955Z,99.90
2022-08-29T06:46:39.634Z,99.90
2022-08-29T06:49:06.881Z,99.90
2022-08-29T06:51:35.025Z,99.90
2022-08-29T06:54:05.192Z,99.90
2022-08-29T06:56:34.138Z,99.90
2022-08-29T06:59:03.863Z,99.90
2022-08-29T07:01:31.243Z,99.90
2022-08-29T07:04:00.175Z,99.90
2022-08-29T07:06:27.034Z,99.90
2022-08-29T07:08:55.468Z,99.90
2022-08-29T07:11:23.075Z,99.90
2022-08-29T07:13:49.736Z,99.90
2022-08-29T07:16:16.952Z,99.90
2022-08-29T07:18:44.734Z,99.90
2022-08-29T07:21:14.887Z,99.90
2022-08-29T07:23:43.615Z,99.90
2022-08-29T07:26:14.149Z,99.90
2022-08-29T07:28:45.633Z,99.90
2022-08-29T07:31:14.193Z,99.90
2022-08-29T07:33:40.849Z,99.90
2022-08-29T07:36:07.548Z,99.90
2022-08-29T07:38:34.311Z,99.90
2022-08-29T07:41:06.286Z,99.90
2022-08-29T07:43:33.113Z,99.90
2022-08-29T07:45:59.864Z,99.90
2022-08-29T07:48:26.649Z,99.90
2022-08-29T07:50:53.249Z,99.90
2022-08-29T07:53:20.058Z,99.90
2022-08-29T07:55:46.699Z,99.90
2022-08-29T07:58:13.803Z,99.90
2022-08-29T08:00:40.553Z,99.90
2022-08-29T08:03:08.743Z,99.90
2022-08-29T08:05:35.718Z,99.90
2022-08-29T08:08:08.926Z,99.90
2022-08-29T08:10:42.532Z,99.90
2022-08-29T08:13:09.165Z,99.90
2022-08-29T08:15:37.266Z,99.90
2022-08-29T08:18:03.976Z,99.90
2022-08-29T08:20:31.060Z,99.90
2022-08-29T08:22:58.563Z,99.90
2022-08-29T08:25:26.154Z,99.90
2022-08-29T08:27:53.055Z,99.90
2022-08-29T08:30:20.060Z,99.90
2022-08-29T08:32:49.569Z,99.90
2022-08-29T08:35:22.530Z,99.90
2022-08-29T08:37:49.809Z,99.90
2022-08-29T08:40:19.789Z,99.90
2022-08-29T08:42:46.650Z,99.90
2022-08-29T08:45:19.987Z,99.90
2022-08-29T08:47:51.066Z,99.90
2022-08-29T08:50:25.652Z,99.90
2022-08-29T08:52:58.809Z,99.90
2022-08-29T08:55:39.677Z,99.90
2022-08-29T08:58:18.713Z,99.90
2022-08-29T09:00:57.573Z,99.90
2022-08-29T09:03:43.067Z,99.90
2022-08-29T09:06:12.368Z,99.90
2022-08-29T09:08:57.766Z,99.90
2022-08-29T09:11:31.540Z,99.90
2022-08-29T09:13:58.204Z,99.90
2022-08-29T09:16:27.706Z,99.90
2022-08-29T09:18:55.870Z,99.90
2022-08-29T09:21:40.553Z,99.90
2022-08-29T09:24:08.866Z,99.90
2022-08-29T09:26:35.511Z,99.90
2022-08-29T09:29:02.162Z,99.90
2022-08-29T09:31:32.798Z,99.90
2022-08-29T09:34:00.271Z,99.90
2022-08-29T09:36:33.638Z,99.90
2022-08-29T09:39:17.396Z,99.90
2022-08-29T09:41:44.813Z,99.90
2022-08-29T09:44:19.863Z,99.90
2022-08-29T09:46:46.529Z,99.90
2022-08-29T09:49:14.594Z,99.90
2022-08-29T09:51:45.683Z,99.90
2022-08-29T09:54:14.621Z,99.90
2022-08-29T09:56:51.968Z,99.90
2022-08-29T09:59:27.966Z,99.90
2022-08-29T10:02:08.498Z,99.90
2022-08-29T10:04:35.912Z,99.90
2022-08-29T10:07:10.563Z,99.90
2022-08-29T10:09:37.153Z,99.90
2022-08-29T10:12:06.281Z,99.90
2022-08-29T10:14:36.611Z,99.90
2022-08-29T10:17:22.552Z,99.90
2022-08-29T10:19:49.159Z,99.90
2022-08-29T10:22:33.870Z,99.90
2022-08-29T10:25:09.792Z,99.90
2022-08-29T10:27:44.136Z,99.90
2022-08-29T10:30:12.130Z,99.90
2022-08-29T10:32:41.851Z,99.90
2022-08-29T10:35:12.440Z,99.90
2022-08-29T10:37:58.052Z,99.90
2022-08-29T10:40:37.849Z,99.90
2022-08-29T10:43:31.540Z,99.90
2022-08-29T10:46:04.540Z,99.90
2022-08-29T10:48:39.466Z,99.90
2022-08-29T10:51:21.620Z,99.90
2022-08-29T10:53:58.455Z,99.90
2022-08-29T10:56:30.548Z,99.90
2022-08-29T10:59:18.471Z,99.90
2022-08-29T11:01:50.139Z,99.90
2022-08-29T11:04:26.148Z,99.90
2022-08-29T11:06:56.807Z,99.90
2022-08-29T11:09:43.701Z,99.90
2022-08-29T11:12:30.602Z,99.90
2022-08-29T11:15:02.811Z,99.90
2022-08-29T11:17:31.116Z,99.90
2022-08-29T11:20:11.637Z,99.90
2022-08-29T11:22:41.380Z,99.90
2022-08-29T11:25:09.769Z,99.90
2022-08-29T11:27:36.343Z,99.90
2022-08-29T11:30:06.890Z,99.90
2022-08-29T11:32:44.463Z,99.90
2022-08-29T11:35:29.298Z,99.90
2022-08-29T11:38:18.981Z,99.90
2022-08-29T11:43:44.996Z,99.90
2022-08-29T11:46:11.728Z,99.90
2022-08-29T11:48:48.018Z,99.90
2022-08-29T11:51:28.818Z,99.90
2022-08-29T11:53:55.644Z,99.90
2022-08-29T11:56:27.749Z,99.90
2022-08-29T11:58:55.487Z,99.90
2022-08-29T12:01:25.197Z,99.90
2022-08-29T12:03:52.733Z,99.90
2022-08-29T12:06:39.679Z,99.90
2022-08-29T12:09:13.933Z,99.90
2022-08-29T12:11:59.286Z,99.90
2022-08-29T12:14:33.175Z,99.90
2022-08-29T12:17:04.876Z,99.90
2022-08-29T12:19:47.764Z,99.90
2022-08-29T12:22:33.659Z,99.90
2022-08-29T12:25:04.621Z,99.90
2022-08-29T12:27:51.323Z,99.90
2022-08-29T12:30:17.972Z,99.90
2022-08-29T12:32:47.839Z,99.90
2022-08-29T12:35:24.342Z,99.90
2022-08-29T12:38:00.610Z,99.90
2022-08-29T12:40:33.316Z,99.90
2022-08-29T12:43:07.818Z,99.90
2022-08-29T12:45:34.854Z,99.90
2022-08-29T12:48:21.007Z,99.90
2022-08-29T12:50:48.848Z,99.90
2022-08-29T12:53:16.585Z,99.90
2022-08-29T12:55:44.532Z,99.90
2022-08-29T12:58:11.628Z,99.90
2022-08-29T13:00:38.442Z,99.90
2022-08-29T13:03:09.309Z,99.90
2022-08-29T13:05:41.263Z,99.90
2022-08-29T13:08:12.471Z,99.90
2022-08-29T13:10:41.718Z,99.90
2022-08-29T13:13:10.912Z,99.90
2022-08-29T13:15:37.538Z,99.90
2022-08-29T13:18:04.238Z,99.90
2022-08-29T13:20:40.338Z,99.90
2022-08-29T13:23:14.223Z,99.90
2022-08-29T13:25:43.945Z,99.90
2022-08-29T13:28:15.090Z,99.90
2022-08-29T13:30:42.086Z,99.90
2022-08-29T13:33:35.599Z,99.90
2022-08-29T13:36:22.726Z,99.90
2022-08-29T13:39:09.279Z,99.90
2022-08-29T13:41:35.984Z,99.90
2022-08-29T13:44:02.654Z,99.90
2022-08-29T13:46:30.661Z,99.90
2022-08-29T13:48:58.440Z,99.90
2022-08-29T13:51:25.052Z,99.90
2022-08-29T13:53:52.080Z,99.90
2022-08-29T13:56:20.118Z,99.90
2022-08-29T13:58:46.824Z,99.90
2022-08-29T14:04:15.318Z,99.90
2022-08-29T14:06:46.781Z,99.90
2022-08-29T14:09:20.453Z,99.90
2022-08-29T14:11:47.368Z,99.90
2022-08-29T14:14:14.030Z,99.90
2022-08-29T14:16:40.816Z,99.90
2022-08-29T14:19:07.417Z,99.90
2022-08-29T14:21:34.038Z,99.90
2022-08-29T14:24:00.927Z,99.90
2022-08-29T14:26:27.993Z,99.90
2022-08-29T14:28:54.837Z,99.90
2022-08-29T14:31:21.638Z,99.90
2022-08-29T14:33:51.701Z,99.90
2022-08-29T14:36:18.890Z,99.90
2022-08-29T14:38:45.690Z,99.90
2022-08-29T14:41:12.512Z,99.90
2022-08-29T14:43:40.011Z,99.90
2022-08-29T14:46:06.856Z,99.90
2022-08-29T14:48:34.009Z,99.90
2022-08-29T14:51:00.793Z,99.90
2022-08-29T14:53:27.502Z,99.90
2022-08-29T14:55:54.962Z,99.90
2022-08-29T14:58:21.610Z,99.90
2022-08-29T15:00:48.197Z,99.90
2022-08-29T15:03:17.277Z,99.90
2022-08-29T15:05:44.753Z,99.90
2022-08-29T15:08:15.991Z,99.90
2022-08-29T15:10:42.632Z,99.90
2022-08-29T15:13:09.239Z,99.90
2022-08-29T15:15:35.887Z,99.90
2022-08-29T15:18:02.825Z,99.90
2022-08-29T15:20:38.157Z,99.90
2022-08-29T15:23:05.973Z,99.90
2022-08-29T15:25:32.604Z,99.90
2022-08-29T15:27:59.419Z,99.90
2022-08-29T15:30:25.996Z,99.90
2022-08-29T15:32:52.598Z,99.90
2022-08-29T15:35:19.213Z,99.90
2022-08-29T15:37:46.059Z,99.90
2022-08-29T15:40:13.729Z,99.90
2022-08-29T15:42:40.571Z,99.90
2022-08-29T15:45:08.152Z,99.90
2022-08-29T15:47:35.105Z,99.90
2022-08-29T15:50:02.265Z,99.90
2022-08-29T15:52:31.074Z,99.90
2022-08-29T15:54:57.974Z,99.90
2022-08-29T15:57:25.345Z,99.90
2022-08-29T15:59:58.021Z,99.90
2022-08-29T16:02:25.299Z,99.90
2022-08-29T16:04:56.422Z,99.90
2022-08-29T16:07:25.322Z,99.90
2022-08-29T16:09:56.645Z,99.90
2022-08-29T16:12:23.232Z,99.90
2022-08-29T16:15:09.428Z,99.90
2022-08-29T16:17:37.126Z,99.90
2022-08-29T16:20:04.253Z,99.90
2022-08-29T16:22:30.986Z,99.90
2022-08-29T16:24:58.035Z,99.90
2022-08-29T16:27:24.713Z,99.90
2022-08-29T16:29:51.967Z,99.90
2022-08-29T16:32:18.980Z,99.90
2022-08-29T16:34:45.649Z,99.90
2022-08-29T16:37:12.492Z,99.90
2022-08-29T16:39:39.268Z,99.90
2022-08-29T16:42:05.901Z,99.90
2022-08-29T16:44:33.204Z,99.90
2022-08-29T16:46:59.840Z,99.90
2022-08-29T16:49:26.494Z,99.90
2022-08-29T16:51:53.288Z,99.90
2022-08-29T16:54:19.944Z,99.90
2022-08-29T16:56:46.712Z,99.90
2022-08-29T16:59:13.583Z,99.90
2022-08-29T17:01:42.213Z,99.90
2022-08-29T17:04:10.787Z,99.90
2022-08-29T17:06:38.893Z,99.90
2022-08-29T17:09:08.756Z,99.90
2022-08-29T17:11:36.313Z,99.90
2022-08-29T17:14:02.884Z,99.90
2022-08-29T17:16:29.857Z,99.90
2022-08-29T17:18:56.880Z,99.90
2022-08-29T17:21:23.673Z,99.90
2022-08-29T17:23:50.401Z,99.90
2022-08-29T17:26:17.138Z,99.90
2022-08-29T17:28:44.181Z,99.90
2022-08-29T17:31:10.828Z,99.90
2022-08-29T17:33:37.507Z,99.90
2022-08-29T17:36:04.835Z,99.90
2022-08-29T17:38:31.966Z,99.90
2022-08-29T17:40:59.106Z,99.90
2022-08-29T17:43:25.949Z,99.90
2022-08-29T17:45:52.686Z,99.90
2022-08-29T17:48:19.774Z,99.90
2022-08-29T17:50:47.312Z,99.90
2022-08-29T17:53:13.913Z,99.90
2022-08-29T17:55:40.541Z,99.90
2022-08-29T17:58:07.179Z,99.90
2022-08-29T18:00:33.839Z,99.90
2022-08-29T18:03:00.594Z,99.90
2022-08-29T18:05:27.251Z,99.90
2022-08-29T18:07:53.903Z,99.90
2022-08-29T18:10:22.132Z,99.90
2022-08-29T18:12:48.802Z,99.90
2022-08-29T18:15:15.401Z,99.90
2022-08-29T18:17:43.188Z,99.90
2022-08-29T18:20:10.274Z,99.90
2022-08-29T18:22:36.896Z,99.90
2022-08-29T18:25:03.561Z,99.90
2022-08-29T18:27:31.036Z,99.90
2022-08-29T18:29:57.774Z,99.90
2022-08-29T18:32:25.906Z,99.90
2022-08-29T18:34:56.543Z,99.90
2022-08-29T18:37:26.885Z,99.90
2022-08-29T18:39:53.460Z,99.90
2022-08-29T18:42:38.842Z,99.90
2022-08-29T18:45:06.569Z,99.90
2022-08-29T18:47:33.215Z,99.90
2022-08-29T18:50:18.898Z,99.90
2022-08-29T18:52:46.146Z,99.90
2022-08-29T18:55:15.779Z,99.90
2022-08-29T18:57:44.253Z,99.90
2022-08-29T19:00:11.766Z,99.90
2022-08-29T19:02:38.558Z,99.90
2022-08-29T19:05:06.110Z,99.90
2022-08-29T19:07:32.893Z,99.90
2022-08-29T19:09:59.470Z,99.90
2022-08-29T19:12:26.083Z,99.90
2022-08-29T19:14:53.004Z,99.90
2022-08-29T19:17:19.656Z,99.90
2022-08-29T19:20:10.099Z,99.90
2022-08-29T19:22:38.136Z,99.90
2022-08-29T19:25:05.937Z,99.90
2022-08-29T19:27:43.363Z,99.90
2022-08-29T19:30:10.709Z,99.90
2022-08-29T19:32:37.296Z,99.90
2022-08-29T19:35:03.984Z,99.90
2022-08-29T19:37:30.612Z,99.90
2022-08-29T19:39:57.217Z,99.90
2022-08-29T19:42:23.957Z,99.90
2022-08-29T19:44:50.579Z,99.90
2022-08-29T19:47:17.208Z,99.90
2022-08-29T19:49:45.293Z,99.90
2022-08-29T19:52:12.137Z,99.90
2022-08-29T19:54:38.720Z,99.90
2022-08-29T19:57:10.042Z,99.90
2022-08-29T19:59:41.231Z,99.90
2022-08-29T20:02:09.239Z,99.90
2022-08-29T20:04:36.348Z,99.90
2022-08-29T20:07:03.105Z,99.90
2022-08-29T20:09:30.716Z,99.90
2022-08-29T20:11:59.349Z,99.90
2022-08-29T20:14:25.971Z,99.90
2022-08-29T20:16:52.578Z,99.90
2022-08-29T20:19:21.177Z,99.90
2022-08-29T20:21:48.338Z,99.90
2022-08-29T20:24:15.710Z,99.90
2022-08-29T20:26:43.440Z,99.90
2022-08-29T20:29:10.467Z,99.90
2022-08-29T20:31:37.135Z,99.90
2022-08-29T20:34:03.740Z,99.90
2022-08-29T20:36:49.027Z,1.40
2022-08-29T20:39:16.541Z,1.00
2022-08-29T20:41:47.845Z,1.00
2022-08-29T20:44:18.152Z,1.00
2022-08-29T20:46:44.776Z,1.00
2022-08-29T20:49:13.329Z,1.00
2022-08-29T20:51:39.911Z,1.00
2022-08-29T20:54:06.532Z,1.00
2022-08-29T20:56:33.311Z,99.90
2022-08-29T20:58:59.892Z,99.90
2022-08-29T21:01:26.880Z,1.00
2022-08-29T21:04:12.073Z,1.00
2022-08-29T21:06:38.636Z,1.40
2022-08-29T21:09:05.277Z,1.40
2022-08-29T21:11:31.856Z,1.00
2022-08-29T21:13:58.519Z,1.00
2022-08-29T21:16:25.234Z,1.00
2022-08-29T21:18:52.503Z,1.00
2022-08-29T21:21:21.948Z,1.00
2022-08-29T21:23:50.751Z,1.00
2022-08-29T21:26:17.749Z,1.00
2022-08-29T21:28:46.987Z,1.00
2022-08-29T21:31:13.919Z,1.00
2022-08-29T21:33:41.240Z,1.00
2022-08-29T21:36:10.030Z,1.00
2022-08-29T21:38:36.760Z,1.00
2022-08-29T21:41:03.334Z,1.00
2022-08-29T21:43:29.987Z,1.00
2022-08-29T21:45:56.629Z,1.00
2022-08-29T21:48:23.257Z,1.00
2022-08-29T21:50:58.864Z,1.00
2022-08-29T21:53:25.524Z,1.00
2022-08-29T21:55:52.455Z,1.00
2022-08-29T21:58:20.179Z,1.00
2022-08-29T22:00:48.104Z,1.00
2022-08-29T22:03:14.909Z,1.00
2022-08-29T22:05:43.844Z,1.00
2022-08-29T22:08:13.295Z,1.00
2022-08-29T22:10:40.867Z,1.00
2022-08-29T22:13:07.694Z,1.00
2022-08-29T22:15:53.046Z,1.00
2022-08-29T22:18:19.658Z,1.00
2022-08-29T22:20:46.803Z,1.00
2022-08-29T22:23:13.720Z,1.00
2022-08-29T22:25:44.317Z,1.00
2022-08-29T22:28:11.565Z,1.00
2022-08-29T22:30:38.229Z,1.00
2022-08-29T22:33:05.366Z,1.00
2022-08-29T22:35:31.945Z,1.00
2022-08-29T22:37:59.043Z,1.00
2022-08-29T22:40:25.657Z,1.00
2022-08-29T22:42:52.331Z,1.00
2022-08-29T22:45:18.923Z,1.00
2022-08-29T22:47:45.727Z,1.00
2022-08-29T22:50:13.947Z,1.00
2022-08-29T22:52:40.512Z,1.00
2022-08-29T22:55:07.665Z,1.00
2022-08-29T22:57:34.261Z,1.00
2022-08-29T23:00:01.021Z,1.00
2022-08-29T23:02:27.791Z,1.00
2022-08-29T23:04:54.403Z,10.30
2022-08-29T23:07:21.061Z,22.30
2022-08-29T23:09:47.671Z,1.00
2022-08-29T23:12:14.235Z,1.00
2022-08-29T23:14:41.507Z,10.40
2022-08-29T23:17:08.333Z,16.60
2022-08-29T23:19:35.300Z,54.10
2022-08-29T23:22:02.173Z,99.90
2022-08-29T23:24:29.205Z,99.90
2022-08-29T23:26:55.782Z,99.90
2022-08-29T23:29:22.752Z,99.90
2022-08-29T23:31:49.503Z,99.90
2022-08-29T23:34:16.237Z,99.90
2022-08-29T23:36:43.494Z,99.90
2022-08-29T23:39:10.133Z,99.90
2022-08-29T23:41:36.748Z,99.90
2022-08-29T23:44:03.460Z,1.00
2022-08-29T23:46:30.107Z,1.00
2022-08-29T23:48:56.733Z,1.00
2022-08-29T23:51:23.299Z,1.00
2022-08-29T23:53:49.885Z,1.00
2022-08-29T23:56:17.478Z,1.00
2022-08-29T23:58:44.333Z,1.00
